ESNU/UME METAR and TAF weather

Enter ICAO airport designator
Station Type Date Time Source
ESNU METAR 2018/10/21 03:20 UTC NOAA

ESNU 210320Z AUTO 19008KT 9999 BKN086/// BKN140/// 07/07 Q1012


Station Type Date Time Source
ESNU Decoded METAR 2018/10/21 03:20 UTC NOAA

Umea Flygplats, Sweden (ESNU) 63-48N 020-17E 14M
Oct 20, 2018 - 11:20 PM EDT / 2018.10.21 0320 UTC
Wind: from the S (190 degrees) at 9 MPH (8 KT):0
Visibility: greater than 7 mile(s):0
Sky conditions: mostly cloudy
Temperature: 44 F (7 C)
Dew Point: 44 F (7 C)
Relative Humidity: 100%
Pressure (altimeter): 29.88 in. Hg (1012 hPa)
ob: ESNU 210320Z AUTO 19008KT 9999 BKN086/// BKN140/// 07/07 Q1012
cycle: 3

Station Type Date Time Source
ESNU TAF 2017/11/01 15:33 UTC NOAA

TAF TAF ESNU 011430Z 0115/0224 13005KT 9999 OVC004
TEMPO 0115/0124 OVC008


Example: see airport list